sensor_id;sensor_type;location;lat;lon;timestamp;P1;durP1;ratioP1;P2;durP2;ratioP2
53833;SDS011;39735;51.432;5.482;2023-07-16T00:01:31;6.50;;;1.73;;
53833;SDS011;39735;51.432;5.482;2023-07-16T00:03:56;23.33;;;2.55;;
53833;SDS011;39735;51.432;5.482;2023-07-16T00:06:21;7.20;;;2.53;;
53833;SDS011;39735;51.432;5.482;2023-07-16T00:08:46;20.30;;;3.85;;
53833;SDS011;39735;51.432;5.482;2023-07-16T00:11:11;10.63;;;2.37;;
53833;SDS011;39735;51.432;5.482;2023-07-16T00:13:37;15.23;;;3.40;;
53833;SDS011;39735;51.432;5.482;2023-07-16T00:16:02;8.52;;;3.17;;
53833;SDS011;39735;51.432;5.482;2023-07-16T00:18:28;15.48;;;3.50;;
53833;SDS011;39735;51.432;5.482;2023-07-16T00:20:54;28.40;;;3.97;;
53833;SDS011;39735;51.432;5.482;2023-07-16T00:23:19;3.55;;;1.85;;
53833;SDS011;39735;51.432;5.482;2023-07-16T00:25:44;15.13;;;2.43;;
53833;SDS011;39735;51.432;5.482;2023-07-16T00:28:09;10.40;;;2.60;;
53833;SDS011;39735;51.432;5.482;2023-07-16T00:30:36;10.75;;;2.08;;
53833;SDS011;39735;51.432;5.482;2023-07-16T00:33:02;13.80;;;2.25;;
53833;SDS011;39735;51.432;5.482;2023-07-16T00:35:27;14.10;;;2.33;;
53833;SDS011;39735;51.432;5.482;2023-07-16T00:37:52;31.75;;;3.38;;
53833;SDS011;39735;51.432;5.482;2023-07-16T00:40:17;16.30;;;2.95;;
53833;SDS011;39735;51.432;5.482;2023-07-16T00:42:43;2.38;;;2.25;;
53833;SDS011;39735;51.432;5.482;2023-07-16T00:45:09;31.25;;;2.88;;
53833;SDS011;39735;51.432;5.482;2023-07-16T00:47:34;16.00;;;2.85;;
53833;SDS011;39735;51.432;5.482;2023-07-16T00:49:59;14.52;;;3.85;;
53833;SDS011;39735;51.432;5.482;2023-07-16T00:52:25;16.60;;;4.45;;
53833;SDS011;39735;51.432;5.482;2023-07-16T00:54:50;7.90;;;3.22;;
53833;SDS011;39735;51.432;5.482;2023-07-16T00:57:15;17.13;;;3.55;;
53833;SDS011;39735;51.432;5.482;2023-07-16T00:59:41;5.22;;;2.83;;
53833;SDS011;39735;51.432;5.482;2023-07-16T01:02:06;6.53;;;2.90;;
53833;SDS011;39735;51.432;5.482;2023-07-16T01:04:31;7.95;;;3.53;;
53833;SDS011;39735;51.432;5.482;2023-07-16T01:06:57;6.65;;;2.80;;
53833;SDS011;39735;51.432;5.482;2023-07-16T01:09:25;8.07;;;4.53;;
53833;SDS011;39735;51.432;5.482;2023-07-16T01:11:50;28.48;;;3.13;;
53833;SDS011;39735;51.432;5.482;2023-07-16T01:14:16;2.25;;;2.00;;
53833;SDS011;39735;51.432;5.482;2023-07-16T01:16:42;12.75;;;2.63;;
53833;SDS011;39735;51.432;5.482;2023-07-16T01:19:07;20.33;;;3.92;;
53833;SDS011;39735;51.432;5.482;2023-07-16T01:27:17;9.90;;;2.42;;
53833;SDS011;39735;51.432;5.482;2023-07-16T01:29:49;4.88;;;2.58;;
53833;SDS011;39735;51.432;5.482;2023-07-16T01:32:16;15.68;;;2.92;;
53833;SDS011;39735;51.432;5.482;2023-07-16T01:34:41;21.15;;;2.60;;
53833;SDS011;39735;51.432;5.482;2023-07-16T01:37:07;7.18;;;3.20;;
53833;SDS011;39735;51.432;5.482;2023-07-16T01:39:33;17.15;;;2.35;;
53833;SDS011;39735;51.432;5.482;2023-07-16T01:41:58;14.40;;;2.55;;
53833;SDS011;39735;51.432;5.482;2023-07-16T01:44:24;9.80;;;2.65;;
53833;SDS011;39735;51.432;5.482;2023-07-16T01:47:06;27.57;;;3.87;;
53833;SDS011;39735;51.432;5.482;2023-07-16T01:49:32;10.93;;;3.30;;
53833;SDS011;39735;51.432;5.482;2023-07-16T01:51:59;2.95;;;2.40;;
53833;SDS011;39735;51.432;5.482;2023-07-16T01:54:24;49.35;;;4.32;;
53833;SDS011;39735;51.432;5.482;2023-07-16T01:56:49;10.33;;;2.93;;
53833;SDS011;39735;51.432;5.482;2023-07-16T01:59:15;16.30;;;2.30;;
53833;SDS011;39735;51.432;5.482;2023-07-16T02:01:40;11.37;;;3.93;;
53833;SDS011;39735;51.432;5.482;2023-07-16T02:04:05;14.93;;;2.80;;
53833;SDS011;39735;51.432;5.482;2023-07-16T02:06:30;8.83;;;3.07;;
53833;SDS011;39735;51.432;5.482;2023-07-16T02:08:55;12.17;;;3.33;;
53833;SDS011;39735;51.432;5.482;2023-07-16T02:11:21;12.27;;;2.80;;
53833;SDS011;39735;51.432;5.482;2023-07-16T02:13:46;8.33;;;3.37;;
53833;SDS011;39735;51.432;5.482;2023-07-16T02:16:11;7.67;;;2.63;;
53833;SDS011;39735;51.432;5.482;2023-07-16T02:18:36;19.63;;;3.17;;
53833;SDS011;39735;51.432;5.482;2023-07-16T02:21:02;21.20;;;3.43;;
53833;SDS011;39735;51.432;5.482;2023-07-16T02:23:27;8.95;;;3.33;;
53833;SDS011;39735;51.432;5.482;2023-07-16T02:25:52;22.02;;;4.45;;
53833;SDS011;39735;51.432;5.482;2023-07-16T02:28:17;6.60;;;2.57;;
53833;SDS011;39735;51.432;5.482;2023-07-16T02:30:43;16.98;;;3.55;;
53833;SDS011;39735;51.432;5.482;2023-07-16T02:33:08;14.70;;;4.77;;
53833;SDS011;39735;51.432;5.482;2023-07-16T02:35:33;25.02;;;4.63;;
53833;SDS011;39735;51.432;5.482;2023-07-16T02:37:58;9.03;;;2.87;;
53833;SDS011;39735;51.432;5.482;2023-07-16T02:40:24;17.20;;;3.03;;
53833;SDS011;39735;51.432;5.482;2023-07-16T02:42:49;15.37;;;3.90;;
53833;SDS011;39735;51.432;5.482;2023-07-16T02:45:14;12.90;;;3.23;;
53833;SDS011;39735;51.432;5.482;2023-07-16T02:47:39;13.15;;;2.92;;
53833;SDS011;39735;51.432;5.482;2023-07-16T02:50:05;5.73;;;2.30;;
53833;SDS011;39735;51.432;5.482;2023-07-16T02:52:30;12.15;;;3.92;;
53833;SDS011;39735;51.432;5.482;2023-07-16T02:54:55;8.47;;;2.57;;
53833;SDS011;39735;51.432;5.482;2023-07-16T02:57:21;6.13;;;2.47;;
53833;SDS011;39735;51.432;5.482;2023-07-16T02:59:47;22.75;;;4.93;;
53833;SDS011;39735;51.432;5.482;2023-07-16T03:02:12;19.37;;;3.03;;
53833;SDS011;39735;51.432;5.482;2023-07-16T03:04:37;25.13;;;3.50;;
53833;SDS011;39735;51.432;5.482;2023-07-16T03:07:03;5.22;;;2.83;;
53833;SDS011;39735;51.432;5.482;2023-07-16T03:09:28;6.90;;;2.75;;
53833;SDS011;39735;51.432;5.482;2023-07-16T03:11:53;12.35;;;4.78;;
53833;SDS011;39735;51.432;5.482;2023-07-16T03:14:18;10.82;;;3.42;;
53833;SDS011;39735;51.432;5.482;2023-07-16T03:16:44;21.45;;;4.95;;
53833;SDS011;39735;51.432;5.482;2023-07-16T03:19:09;13.03;;;2.90;;
53833;SDS011;39735;51.432;5.482;2023-07-16T03:21:34;20.40;;;4.57;;
53833;SDS011;39735;51.432;5.482;2023-07-16T03:23:59;16.87;;;3.67;;
53833;SDS011;39735;51.432;5.482;2023-07-16T03:26:24;17.45;;;4.30;;
53833;SDS011;39735;51.432;5.482;2023-07-16T03:28:50;19.80;;;5.32;;
53833;SDS011;39735;51.432;5.482;2023-07-16T03:31:15;16.77;;;3.60;;
53833;SDS011;39735;51.432;5.482;2023-07-16T03:33:40;11.07;;;3.30;;
53833;SDS011;39735;51.432;5.482;2023-07-16T03:36:05;14.00;;;4.13;;
53833;SDS011;39735;51.432;5.482;2023-07-16T03:38:31;17.98;;;4.10;;
53833;SDS011;39735;51.432;5.482;2023-07-16T03:40:56;13.30;;;4.38;;
53833;SDS011;39735;51.432;5.482;2023-07-16T03:43:22;16.33;;;4.13;;
53833;SDS011;39735;51.432;5.482;2023-07-16T03:45:47;24.83;;;5.53;;
53833;SDS011;39735;51.432;5.482;2023-07-16T03:48:12;12.27;;;3.72;;
53833;SDS011;39735;51.432;5.482;2023-07-16T03:50:37;24.83;;;5.67;;
53833;SDS011;39735;51.432;5.482;2023-07-16T03:53:03;15.07;;;4.63;;
53833;SDS011;39735;51.432;5.482;2023-07-16T03:55:28;24.17;;;4.07;;
53833;SDS011;39735;51.432;5.482;2023-07-16T03:57:53;19.50;;;6.30;;
53833;SDS011;39735;51.432;5.482;2023-07-16T04:00:18;14.73;;;4.67;;
53833;SDS011;39735;51.432;5.482;2023-07-16T04:02:44;12.10;;;4.50;;
53833;SDS011;39735;51.432;5.482;2023-07-16T04:05:09;28.33;;;5.57;;
53833;SDS011;39735;51.432;5.482;2023-07-16T04:07:34;23.25;;;4.93;;
53833;SDS011;39735;51.432;5.482;2023-07-16T04:09:59;13.95;;;5.03;;
53833;SDS011;39735;51.432;5.482;2023-07-16T04:12:25;34.72;;;5.63;;
53833;SDS011;39735;51.432;5.482;2023-07-16T04:14:53;15.43;;;5.93;;
53833;SDS011;39735;51.432;5.482;2023-07-16T04:17:19;12.05;;;4.82;;
53833;SDS011;39735;51.432;5.482;2023-07-16T04:19:44;25.83;;;6.93;;
53833;SDS011;39735;51.432;5.482;2023-07-16T04:22:09;38.23;;;6.23;;
53833;SDS011;39735;51.432;5.482;2023-07-16T04:24:34;18.07;;;5.30;;
53833;SDS011;39735;51.432;5.482;2023-07-16T04:27:00;13.40;;;4.93;;
53833;SDS011;39735;51.432;5.482;2023-07-16T04:29:25;17.80;;;6.60;;
53833;SDS011;39735;51.432;5.482;2023-07-16T04:31:50;9.10;;;4.80;;
53833;SDS011;39735;51.432;5.482;2023-07-16T04:34:15;18.77;;;4.68;;
53833;SDS011;39735;51.432;5.482;2023-07-16T04:36:41;17.98;;;5.22;;
53833;SDS011;39735;51.432;5.482;2023-07-16T04:39:07;26.85;;;5.25;;
53833;SDS011;39735;51.432;5.482;2023-07-16T04:41:32;20.67;;;6.40;;
53833;SDS011;39735;51.432;5.482;2023-07-16T04:43:57;13.40;;;5.40;;
53833;SDS011;39735;51.432;5.482;2023-07-16T04:46:22;35.80;;;5.03;;
53833;SDS011;39735;51.432;5.482;2023-07-16T04:48:47;18.38;;;5.20;;
53833;SDS011;39735;51.432;5.482;2023-07-16T04:51:13;14.63;;;5.03;;
53833;SDS011;39735;51.432;5.482;2023-07-16T04:53:38;34.20;;;7.00;;
53833;SDS011;39735;51.432;5.482;2023-07-16T04:56:03;8.00;;;4.90;;
53833;SDS011;39735;51.432;5.482;2023-07-16T04:58:30;26.15;;;6.35;;
53833;SDS011;39735;51.432;5.482;2023-07-16T05:00:55;12.57;;;5.47;;
53833;SDS011;39735;51.432;5.482;2023-07-16T05:03:20;15.73;;;5.72;;
53833;SDS011;39735;51.432;5.482;2023-07-16T05:05:45;16.80;;;6.10;;
53833;SDS011;39735;51.432;5.482;2023-07-16T05:08:10;39.73;;;7.27;;
53833;SDS011;39735;51.432;5.482;2023-07-16T05:10:36;32.75;;;6.50;;
53833;SDS011;39735;51.432;5.482;2023-07-16T05:13:01;25.67;;;5.80;;
53833;SDS011;39735;51.432;5.482;2023-07-16T05:15:28;15.30;;;7.05;;
53833;SDS011;39735;51.432;5.482;2023-07-16T05:17:54;19.25;;;5.22;;
53833;SDS011;39735;51.432;5.482;2023-07-16T05:20:19;32.80;;;7.50;;
53833;SDS011;39735;51.432;5.482;2023-07-16T05:22:44;37.80;;;7.85;;
53833;SDS011;39735;51.432;5.482;2023-07-16T05:25:09;22.90;;;6.00;;
53833;SDS011;39735;51.432;5.482;2023-07-16T05:27:34;25.42;;;6.60;;
53833;SDS011;39735;51.432;5.482;2023-07-16T05:30:00;24.08;;;7.07;;
53833;SDS011;39735;51.432;5.482;2023-07-16T05:32:26;23.63;;;5.45;;
53833;SDS011;39735;51.432;5.482;2023-07-16T05:34:51;20.57;;;5.67;;
53833;SDS011;39735;51.432;5.482;2023-07-16T05:37:16;11.52;;;6.80;;
53833;SDS011;39735;51.432;5.482;2023-07-16T05:39:41;14.37;;;6.97;;
53833;SDS011;39735;51.432;5.482;2023-07-16T05:42:06;12.40;;;7.40;;
53833;SDS011;39735;51.432;5.482;2023-07-16T05:44:32;19.13;;;5.72;;
53833;SDS011;39735;51.432;5.482;2023-07-16T05:46:58;23.45;;;7.05;;
53833;SDS011;39735;51.432;5.482;2023-07-16T05:49:24;40.60;;;8.10;;
53833;SDS011;39735;51.432;5.482;2023-07-16T05:51:50;18.15;;;6.50;;
53833;SDS011;39735;51.432;5.482;2023-07-16T05:54:16;16.20;;;7.10;;
53833;SDS011;39735;51.432;5.482;2023-07-16T05:56:41;25.60;;;7.13;;
53833;SDS011;39735;51.432;5.482;2023-07-16T05:59:07;25.35;;;7.40;;
53833;SDS011;39735;51.432;5.482;2023-07-16T06:01:32;29.30;;;7.37;;
53833;SDS011;39735;51.432;5.482;2023-07-16T06:03:57;16.95;;;7.35;;
53833;SDS011;39735;51.432;5.482;2023-07-16T06:06:22;27.10;;;7.57;;
53833;SDS011;39735;51.432;5.482;2023-07-16T06:08:48;25.48;;;7.60;;
53833;SDS011;39735;51.432;5.482;2023-07-16T06:11:13;24.27;;;6.63;;
53833;SDS011;39735;51.432;5.482;2023-07-16T06:13:39;25.48;;;7.40;;
53833;SDS011;39735;51.432;5.482;2023-07-16T06:16:04;23.07;;;7.27;;
53833;SDS011;39735;51.432;5.482;2023-07-16T06:18:29;22.65;;;8.93;;
53833;SDS011;39735;51.432;5.482;2023-07-16T06:20:54;15.00;;;6.17;;
53833;SDS011;39735;51.432;5.482;2023-07-16T06:23:20;27.90;;;7.60;;
53833;SDS011;39735;51.432;5.482;2023-07-16T06:25:45;46.13;;;7.95;;
53833;SDS011;39735;51.432;5.482;2023-07-16T06:28:12;27.15;;;8.48;;
53833;SDS011;39735;51.432;5.482;2023-07-16T06:30:38;22.70;;;8.75;;
53833;SDS011;39735;51.432;5.482;2023-07-16T06:33:04;57.90;;;9.55;;
53833;SDS011;39735;51.432;5.482;2023-07-16T06:35:29;16.83;;;7.72;;
53833;SDS011;39735;51.432;5.482;2023-07-16T06:37:54;25.33;;;8.00;;
53833;SDS011;39735;51.432;5.482;2023-07-16T06:40:20;19.50;;;8.23;;
53833;SDS011;39735;51.432;5.482;2023-07-16T06:42:45;29.02;;;10.10;;
53833;SDS011;39735;51.432;5.482;2023-07-16T06:45:10;28.67;;;8.93;;
53833;SDS011;39735;51.432;5.482;2023-07-16T06:47:35;32.58;;;7.93;;
53833;SDS011;39735;51.432;5.482;2023-07-16T06:50:01;19.98;;;7.38;;
53833;SDS011;39735;51.432;5.482;2023-07-16T06:52:26;18.10;;;7.82;;
53833;SDS011;39735;51.432;5.482;2023-07-16T06:54:53;30.92;;;9.35;;
53833;SDS011;39735;51.432;5.482;2023-07-16T06:57:18;30.67;;;9.75;;
53833;SDS011;39735;51.432;5.482;2023-07-16T06:59:43;15.67;;;9.30;;
53833;SDS011;39735;51.432;5.482;2023-07-16T07:02:08;42.80;;;9.90;;
53833;SDS011;39735;51.432;5.482;2023-07-16T07:04:34;27.52;;;10.02;;
53833;SDS011;39735;51.432;5.482;2023-07-16T07:06:59;36.55;;;9.35;;
53833;SDS011;39735;51.432;5.482;2023-07-16T07:09:24;20.67;;;9.23;;
53833;SDS011;39735;51.432;5.482;2023-07-16T07:11:50;15.32;;;8.15;;
53833;SDS011;39735;51.432;5.482;2023-07-16T07:14:15;20.67;;;10.07;;
53833;SDS011;39735;51.432;5.482;2023-07-16T07:16:40;22.33;;;9.67;;
53833;SDS011;39735;51.432;5.482;2023-07-16T07:19:05;25.80;;;7.47;;
53833;SDS011;39735;51.432;5.482;2023-07-16T07:21:31;19.00;;;8.18;;
53833;SDS011;39735;51.432;5.482;2023-07-16T07:23:56;20.67;;;8.68;;
53833;SDS011;39735;51.432;5.482;2023-07-16T07:26:21;23.48;;;8.20;;
53833;SDS011;39735;51.432;5.482;2023-07-16T07:28:46;25.13;;;9.75;;
53833;SDS011;39735;51.432;5.482;2023-07-16T07:31:12;24.83;;;8.82;;
53833;SDS011;39735;51.432;5.482;2023-07-16T07:33:37;23.37;;;9.63;;
53833;SDS011;39735;51.432;5.482;2023-07-16T07:36:02;12.15;;;6.75;;
53833;SDS011;39735;51.432;5.482;2023-07-16T07:38:28;32.85;;;9.52;;
53833;SDS011;39735;51.432;5.482;2023-07-16T07:40:53;43.17;;;10.25;;
53833;SDS011;39735;51.432;5.482;2023-07-16T07:43:19;12.80;;;7.60;;
53833;SDS011;39735;51.432;5.482;2023-07-16T07:45:44;43.85;;;11.00;;
53833;SDS011;39735;51.432;5.482;2023-07-16T07:48:09;44.13;;;9.67;;
53833;SDS011;39735;51.432;5.482;2023-07-16T07:50:34;22.10;;;8.50;;
53833;SDS011;39735;51.432;5.482;2023-07-16T07:52:59;28.43;;;9.93;;
53833;SDS011;39735;51.432;5.482;2023-07-16T07:55:25;34.17;;;9.68;;
53833;SDS011;39735;51.432;5.482;2023-07-16T07:57:50;25.67;;;9.90;;
53833;SDS011;39735;51.432;5.482;2023-07-16T08:00:15;21.27;;;8.83;;
53833;SDS011;39735;51.432;5.482;2023-07-16T08:02:40;22.17;;;8.43;;
53833;SDS011;39735;51.432;5.482;2023-07-16T08:05:06;32.63;;;8.77;;
53833;SDS011;39735;51.432;5.482;2023-07-16T08:07:31;23.17;;;8.68;;
53833;SDS011;39735;51.432;5.482;2023-07-16T08:09:56;29.57;;;7.93;;
53833;SDS011;39735;51.432;5.482;2023-07-16T08:12:22;26.70;;;9.50;;
53833;SDS011;39735;51.432;5.482;2023-07-16T08:14:47;23.13;;;8.80;;
53833;SDS011;39735;51.432;5.482;2023-07-16T08:17:13;20.02;;;7.95;;
53833;SDS011;39735;51.432;5.482;2023-07-16T08:19:38;18.00;;;8.25;;
53833;SDS011;39735;51.432;5.482;2023-07-16T08:22:04;40.53;;;7.60;;
53833;SDS011;39735;51.432;5.482;2023-07-16T08:24:29;28.42;;;9.40;;
53833;SDS011;39735;51.432;5.482;2023-07-16T08:26:54;25.25;;;9.70;;
53833;SDS011;39735;51.432;5.482;2023-07-16T08:29:19;21.10;;;8.77;;
53833;SDS011;39735;51.432;5.482;2023-07-16T08:31:45;41.63;;;8.30;;
53833;SDS011;39735;51.432;5.482;2023-07-16T08:34:10;76.17;;;9.57;;
53833;SDS011;39735;51.432;5.482;2023-07-16T08:36:36;24.10;;;8.27;;
53833;SDS011;39735;51.432;5.482;2023-07-16T08:39:01;23.02;;;7.78;;
53833;SDS011;39735;51.432;5.482;2023-07-16T08:41:27;20.98;;;7.40;;
53833;SDS011;39735;51.432;5.482;2023-07-16T08:43:52;33.25;;;7.93;;
53833;SDS011;39735;51.432;5.482;2023-07-16T08:46:18;26.50;;;7.75;;
53833;SDS011;39735;51.432;5.482;2023-07-16T08:48:44;25.20;;;7.50;;
53833;SDS011;39735;51.432;5.482;2023-07-16T08:51:10;21.33;;;7.55;;
53833;SDS011;39735;51.432;5.482;2023-07-16T08:53:36;29.30;;;9.02;;
53833;SDS011;39735;51.432;5.482;2023-07-16T08:56:01;23.42;;;7.60;;
53833;SDS011;39735;51.432;5.482;2023-07-16T08:58:29;18.27;;;7.38;;
53833;SDS011;39735;51.432;5.482;2023-07-16T09:00:54;20.48;;;7.97;;
53833;SDS011;39735;51.432;5.482;2023-07-16T09:03:20;40.38;;;9.82;;
53833;SDS011;39735;51.432;5.482;2023-07-16T09:05:45;21.40;;;7.67;;
53833;SDS011;39735;51.432;5.482;2023-07-16T09:08:11;29.15;;;7.85;;
53833;SDS011;39735;51.432;5.482;2023-07-16T09:10:39;24.02;;;7.70;;
53833;SDS011;39735;51.432;5.482;2023-07-16T09:13:04;16.20;;;6.40;;
53833;SDS011;39735;51.432;5.482;2023-07-16T09:15:30;30.27;;;8.20;;
53833;SDS011;39735;51.432;5.482;2023-07-16T09:17:55;16.38;;;8.25;;
53833;SDS011;39735;51.432;5.482;2023-07-16T09:20:21;22.65;;;7.00;;
53833;SDS011;39735;51.432;5.482;2023-07-16T09:22:48;13.27;;;6.25;;
53833;SDS011;39735;51.432;5.482;2023-07-16T09:25:14;25.48;;;7.82;;
53833;SDS011;39735;51.432;5.482;2023-07-16T09:27:39;15.15;;;7.35;;
53833;SDS011;39735;51.432;5.482;2023-07-16T09:30:04;31.55;;;6.75;;
53833;SDS011;39735;51.432;5.482;2023-07-16T09:32:38;24.73;;;6.88;;
53833;SDS011;39735;51.432;5.482;2023-07-16T09:37:29;23.65;;;6.97;;
53833;SDS011;39735;51.432;5.482;2023-07-16T09:39:55;11.23;;;5.63;;
53833;SDS011;39735;51.432;5.482;2023-07-16T09:42:20;7.38;;;5.03;;
53833;SDS011;39735;51.432;5.482;2023-07-16T09:44:46;19.95;;;5.50;;
53833;SDS011;39735;51.432;5.482;2023-07-16T09:47:11;17.90;;;6.37;;
53833;SDS011;39735;51.432;5.482;2023-07-16T09:49:38;10.98;;;5.57;;
53833;SDS011;39735;51.432;5.482;2023-07-16T09:52:03;15.90;;;5.18;;
53833;SDS011;39735;51.432;5.482;2023-07-16T09:54:30;11.20;;;5.63;;
53833;SDS011;39735;51.432;5.482;2023-07-16T09:56:57;18.30;;;6.65;;
53833;SDS011;39735;51.432;5.482;2023-07-16T09:59:27;24.40;;;6.32;;
53833;SDS011;39735;51.432;5.482;2023-07-16T10:01:52;16.27;;;5.28;;
53833;SDS011;39735;51.432;5.482;2023-07-16T10:04:18;6.10;;;4.60;;
53833;SDS011;39735;51.432;5.482;2023-07-16T10:06:54;13.70;;;4.65;;
53833;SDS011;39735;51.432;5.482;2023-07-16T10:12:13;17.13;;;4.68;;
53833;SDS011;39735;51.432;5.482;2023-07-16T10:14:40;13.30;;;4.72;;
53833;SDS011;39735;51.432;5.482;2023-07-16T10:17:05;8.40;;;5.20;;
53833;SDS011;39735;51.432;5.482;2023-07-16T10:19:31;11.68;;;5.82;;
53833;SDS011;39735;51.432;5.482;2023-07-16T10:21:56;12.27;;;5.33;;
53833;SDS011;39735;51.432;5.482;2023-07-16T10:24:21;14.18;;;6.25;;
53833;SDS011;39735;51.432;5.482;2023-07-16T10:26:52;12.13;;;4.63;;
53833;SDS011;39735;51.432;5.482;2023-07-16T10:29:17;12.82;;;5.35;;
53833;SDS011;39735;51.432;5.482;2023-07-16T10:31:42;16.17;;;5.85;;
53833;SDS011;39735;51.432;5.482;2023-07-16T10:34:08;11.15;;;4.70;;
53833;SDS011;39735;51.432;5.482;2023-07-16T10:36:40;20.08;;;5.68;;
53833;SDS011;39735;51.432;5.482;2023-07-16T10:39:06;12.80;;;5.80;;
53833;SDS011;39735;51.432;5.482;2023-07-16T10:41:31;12.18;;;6.63;;
53833;SDS011;39735;51.432;5.482;2023-07-16T10:43:57;13.80;;;6.25;;
53833;SDS011;39735;51.432;5.482;2023-07-16T10:46:23;15.10;;;5.15;;
53833;SDS011;39735;51.432;5.482;2023-07-16T10:48:58;11.70;;;5.10;;
53833;SDS011;39735;51.432;5.482;2023-07-16T10:51:35;34.17;;;5.95;;
53833;SDS011;39735;51.432;5.482;2023-07-16T10:54:01;16.98;;;5.90;;
53833;SDS011;39735;51.432;5.482;2023-07-16T10:56:30;11.77;;;5.05;;
53833;SDS011;39735;51.432;5.482;2023-07-16T10:58:58;24.45;;;6.95;;
53833;SDS011;39735;51.432;5.482;2023-07-16T11:01:23;17.03;;;5.63;;
53833;SDS011;39735;51.432;5.482;2023-07-16T11:03:48;15.73;;;7.17;;
53833;SDS011;39735;51.432;5.482;2023-07-16T11:06:14;37.40;;;7.20;;
53833;SDS011;39735;51.432;5.482;2023-07-16T11:08:40;11.48;;;4.82;;
53833;SDS011;39735;51.432;5.482;2023-07-16T11:11:06;11.40;;;4.10;;
53833;SDS011;39735;51.432;5.482;2023-07-16T11:13:31;36.93;;;7.17;;
53833;SDS011;39735;51.432;5.482;2023-07-16T11:15:57;10.90;;;5.47;;
53833;SDS011;39735;51.432;5.482;2023-07-16T11:18:22;20.17;;;6.40;;
53833;SDS011;39735;51.432;5.482;2023-07-16T11:20:52;15.52;;;6.45;;
53833;SDS011;39735;51.432;5.482;2023-07-16T11:23:17;17.45;;;5.10;;
53833;SDS011;39735;51.432;5.482;2023-07-16T11:25:46;11.00;;;5.70;;
53833;SDS011;39735;51.432;5.482;2023-07-16T11:28:13;20.45;;;5.40;;
53833;SDS011;39735;51.432;5.482;2023-07-16T11:30:38;24.92;;;5.57;;
53833;SDS011;39735;51.432;5.482;2023-07-16T11:33:03;9.87;;;4.17;;
53833;SDS011;39735;51.432;5.482;2023-07-16T11:35:34;16.77;;;5.32;;
53833;SDS011;39735;51.432;5.482;2023-07-16T11:37:59;18.08;;;5.28;;
53833;SDS011;39735;51.432;5.482;2023-07-16T11:40:25;22.45;;;5.53;;
53833;SDS011;39735;51.432;5.482;2023-07-16T11:42:50;7.97;;;4.63;;
53833;SDS011;39735;51.432;5.482;2023-07-16T11:45:22;11.07;;;5.97;;
53833;SDS011;39735;51.432;5.482;2023-07-16T11:47:51;14.02;;;6.40;;
53833;SDS011;39735;51.432;5.482;2023-07-16T11:50:16;8.18;;;5.32;;
53833;SDS011;39735;51.432;5.482;2023-07-16T11:52:42;16.58;;;6.38;;
53833;SDS011;39735;51.432;5.482;2023-07-16T11:55:07;12.82;;;4.97;;
53833;SDS011;39735;51.432;5.482;2023-07-16T11:57:33;24.63;;;6.45;;
53833;SDS011;39735;51.432;5.482;2023-07-16T11:59:58;11.85;;;4.70;;
53833;SDS011;39735;51.432;5.482;2023-07-16T12:02:25;34.67;;;7.82;;
53833;SDS011;39735;51.432;5.482;2023-07-16T12:04:50;22.92;;;8.07;;
53833;SDS011;39735;51.432;5.482;2023-07-16T12:07:19;13.30;;;5.57;;
53833;SDS011;39735;51.432;5.482;2023-07-16T12:09:55;16.25;;;5.93;;
53833;SDS011;39735;51.432;5.482;2023-07-16T12:12:20;9.90;;;5.13;;
53833;SDS011;39735;51.432;5.482;2023-07-16T12:14:45;10.80;;;5.13;;
53833;SDS011;39735;51.432;5.482;2023-07-16T12:17:10;17.20;;;4.57;;
53833;SDS011;39735;51.432;5.482;2023-07-16T12:19:36;9.87;;;6.20;;
53833;SDS011;39735;51.432;5.482;2023-07-16T12:22:01;14.23;;;3.63;;
53833;SDS011;39735;51.432;5.482;2023-07-16T12:24:26;10.65;;;6.32;;
53833;SDS011;39735;51.432;5.482;2023-07-16T12:26:51;22.87;;;5.87;;
53833;SDS011;39735;51.432;5.482;2023-07-16T12:29:17;11.57;;;5.15;;
53833;SDS011;39735;51.432;5.482;2023-07-16T12:31:42;17.63;;;6.80;;
53833;SDS011;39735;51.432;5.482;2023-07-16T12:34:07;12.55;;;4.50;;
53833;SDS011;39735;51.432;5.482;2023-07-16T12:36:32;18.83;;;5.13;;
53833;SDS011;39735;51.432;5.482;2023-07-16T12:38:57;21.20;;;5.43;;
53833;SDS011;39735;51.432;5.482;2023-07-16T12:41:23;17.05;;;6.53;;
53833;SDS011;39735;51.432;5.482;2023-07-16T12:43:48;23.90;;;5.82;;
53833;SDS011;39735;51.432;5.482;2023-07-16T12:46:13;34.30;;;6.03;;
53833;SDS011;39735;51.432;5.482;2023-07-16T12:48:38;20.65;;;6.78;;
53833;SDS011;39735;51.432;5.482;2023-07-16T12:51:04;11.40;;;5.85;;
53833;SDS011;39735;51.432;5.482;2023-07-16T12:53:29;9.33;;;7.03;;
53833;SDS011;39735;51.432;5.482;2023-07-16T12:55:54;22.13;;;6.43;;
53833;SDS011;39735;51.432;5.482;2023-07-16T12:58:19;25.13;;;6.97;;
53833;SDS011;39735;51.432;5.482;2023-07-16T13:00:45;11.80;;;5.35;;
53833;SDS011;39735;51.432;5.482;2023-07-16T13:03:10;19.60;;;6.13;;
53833;SDS011;39735;51.432;5.482;2023-07-16T13:05:37;31.13;;;7.50;;
53833;SDS011;39735;51.432;5.482;2023-07-16T13:08:02;16.25;;;5.68;;
53833;SDS011;39735;51.432;5.482;2023-07-16T13:10:28;25.05;;;6.30;;
53833;SDS011;39735;51.432;5.482;2023-07-16T13:12:53;19.43;;;5.77;;
53833;SDS011;39735;51.432;5.482;2023-07-16T13:15:18;19.37;;;6.43;;
53833;SDS011;39735;51.432;5.482;2023-07-16T13:17:44;14.77;;;6.72;;
53833;SDS011;39735;51.432;5.482;2023-07-16T13:20:09;14.07;;;5.97;;
53833;SDS011;39735;51.432;5.482;2023-07-16T13:22:35;8.38;;;4.68;;
53833;SDS011;39735;51.432;5.482;2023-07-16T13:25:00;15.60;;;7.00;;
53833;SDS011;39735;51.432;5.482;2023-07-16T13:27:25;13.57;;;7.27;;
53833;SDS011;39735;51.432;5.482;2023-07-16T13:29:51;13.23;;;4.57;;
53833;SDS011;39735;51.432;5.482;2023-07-16T13:32:16;23.73;;;6.07;;
53833;SDS011;39735;51.432;5.482;2023-07-16T13:34:41;14.60;;;7.07;;
53833;SDS011;39735;51.432;5.482;2023-07-16T13:37:07;10.57;;;5.72;;
53833;SDS011;39735;51.432;5.482;2023-07-16T13:39:32;11.95;;;4.97;;
53833;SDS011;39735;51.432;5.482;2023-07-16T13:41:57;25.45;;;6.30;;
53833;SDS011;39735;51.432;5.482;2023-07-16T13:44:22;10.15;;;5.05;;
53833;SDS011;39735;51.432;5.482;2023-07-16T13:46:48;9.80;;;5.17;;
53833;SDS011;39735;51.432;5.482;2023-07-16T13:49:13;19.43;;;4.90;;
53833;SDS011;39735;51.432;5.482;2023-07-16T13:51:38;28.10;;;7.60;;
53833;SDS011;39735;51.432;5.482;2023-07-16T13:54:04;17.10;;;4.55;;
53833;SDS011;39735;51.432;5.482;2023-07-16T13:56:29;14.68;;;5.10;;
53833;SDS011;39735;51.432;5.482;2023-07-16T13:58:54;9.43;;;4.27;;
53833;SDS011;39735;51.432;5.482;2023-07-16T14:04:13;11.70;;;5.40;;
53833;SDS011;39735;51.432;5.482;2023-07-16T14:06:39;8.67;;;4.57;;
53833;SDS011;39735;51.432;5.482;2023-07-16T14:09:04;16.52;;;5.60;;
53833;SDS011;39735;51.432;5.482;2023-07-16T14:11:30;14.65;;;4.35;;
53833;SDS011;39735;51.432;5.482;2023-07-16T14:13:55;16.38;;;6.00;;
53833;SDS011;39735;51.432;5.482;2023-07-16T14:16:20;9.40;;;4.30;;
53833;SDS011;39735;51.432;5.482;2023-07-16T14:18:50;14.02;;;4.22;;
53833;SDS011;39735;51.432;5.482;2023-07-16T14:21:15;19.95;;;5.78;;
53833;SDS011;39735;51.432;5.482;2023-07-16T14:23:41;20.95;;;5.43;;
53833;SDS011;39735;51.432;5.482;2023-07-16T14:26:06;13.07;;;4.77;;
53833;SDS011;39735;51.432;5.482;2023-07-16T14:28:31;15.20;;;3.93;;
53833;SDS011;39735;51.432;5.482;2023-07-16T14:30:56;18.90;;;3.65;;
53833;SDS011;39735;51.432;5.482;2023-07-16T14:33:22;11.40;;;4.33;;
53833;SDS011;39735;51.432;5.482;2023-07-16T14:35:47;14.70;;;3.92;;
53833;SDS011;39735;51.432;5.482;2023-07-16T14:38:12;19.85;;;4.88;;
53833;SDS011;39735;51.432;5.482;2023-07-16T14:40:38;14.15;;;4.40;;